Time;durP1;ratioP1;P1;durP2;ratioP2;P2;SDS_P1;SDS_P2;PMS_P1;PMS_P2;Temp;Humidity;BMP_temperature;BMP_pressure;BME280_temperature;BME280_humidity;BME280_pressure;Samples;Min_cycle;Max_cycle;Signal;HPM_P1;HPM_P2
2023/10/20 00:00:18;;;;;;;;;1.00;1.00;;;;;16.66;91.12;97371.69;5100202;27;45495;-80
2023/10/20 00:02:44;;;;;;;;;0.00;0.00;;;;;16.52;91.38;97352.06;5098249;27;47997;-80
2023/10/20 00:05:09;;;;;;;;;1.00;1.00;;;;;16.65;91.51;97366.53;5099605;27;45466;-80
2023/10/20 00:07:38;;;;;;;;;1.00;1.00;;;;;16.67;92.02;97359.13;5100143;27;45275;-78
2023/10/20 00:10:05;;;;;;;;;1.00;1.00;;;;;16.65;91.81;97361.16;5099663;27;45545;-80
2023/10/20 00:12:31;;;;;;;;;1.00;1.00;;;;;16.58;91.73;97330.81;5099573;27;45600;-80
2023/10/20 00:14:56;;;;;;;;;1.00;1.00;;;;;16.62;92.27;97337.44;5080272;27;45357;-80
2023/10/20 00:17:22;;;;;;;;;1.00;1.00;;;;;16.52;91.96;97313.66;5097249;27;45205;-81
2023/10/20 00:19:48;;;;;;;;;1.00;1.00;;;;;16.68;92.67;97328.63;5102478;27;45294;-81
2023/10/20 00:22:14;;;;;;;;;3.67;1.00;;;;;16.66;91.87;97317.19;5100549;27;45232;-79
2023/10/20 00:24:41;;;;;;;;;2.33;1.00;;;;;16.65;92.25;97296.78;5100197;27;45698;-80
2023/10/20 00:27:08;;;;;;;;;1.00;0.50;;;;;16.77;91.96;97312.09;5081195;27;45443;-79
2023/10/20 00:29:34;;;;;;;;;1.00;1.00;;;;;16.73;92.30;97294.75;5079776;27;45317;-81
2023/10/20 00:31:59;;;;;;;;;1.00;1.00;;;;;16.70;92.18;97273.72;5080090;28;45440;-80
2023/10/20 00:34:25;;;;;;;;;0.00;0.00;;;;;16.70;92.04;97281.75;5079351;28;45514;-80
2023/10/20 00:36:50;;;;;;;;;1.33;0.00;;;;;16.77;92.11;97285.25;5078305;27;50608;-81
2023/10/20 00:39:16;;;;;;;;;1.33;1.00;;;;;16.89;91.05;97315.00;5077677;28;53072;-81
2023/10/20 00:41:42;;;;;;;;;0.00;0.00;;;;;16.65;90.80;97278.00;5078255;28;45997;-80
2023/10/20 00:44:07;;;;;;;;;0.33;0.00;;;;;16.83;90.90;97315.00;5078321;28;45361;-81
2023/10/20 00:46:34;;;;;;;;;0.67;0.67;;;;;16.67;90.57;97294.75;5078004;27;45627;-79
2023/10/20 00:49:01;;;;;;;;;0.00;0.00;;;;;16.83;91.12;97310.47;5078697;28;45161;-81
2023/10/20 00:51:27;;;;;;;;;0.00;0.00;;;;;16.70;90.37;97294.34;5077677;27;46304;-81
2023/10/20 00:53:56;;;;;;;;;2.00;0.00;;;;;16.82;90.67;97324.91;5098207;27;45450;-81
2023/10/20 00:56:21;;;;;;;;;0.00;0.00;;;;;16.68;91.09;97312.50;5097231;27;45327;-81
2023/10/20 00:58:47;;;;;;;;;0.00;0.00;;;;;16.75;90.78;97307.97;5098716;27;45465;-80
2023/10/20 01:01:13;;;;;;;;;0.00;0.00;;;;;16.85;90.90;97318.31;5079582;27;45374;-82
2023/10/20 01:03:38;;;;;;;;;0.67;0.00;;;;;16.71;90.49;97285.28;5078061;27;45279;-81
2023/10/20 01:06:05;;;;;;;;;0.00;0.00;;;;;16.80;90.47;97306.34;5087903;27;45530;-80
2023/10/20 01:08:30;;;;;;;;;0.00;0.00;;;;;16.81;90.28;97296.44;5097183;27;45609;-82
2023/10/20 01:10:56;;;;;;;;;1.00;0.00;;;;;16.68;90.08;97278.47;5078374;27;46458;-80
2023/10/20 01:13:25;;;;;;;;;0.00;0.00;;;;;16.68;90.02;97272.28;5076590;28;69757;-82
2023/10/20 01:15:50;;;;;;;;;0.00;0.00;;;;;16.61;90.62;97247.25;5077724;27;45448;-81
2023/10/20 01:18:16;;;;;;;;;0.00;0.00;;;;;16.71;90.04;97258.44;5078086;27;45551;-80
2023/10/20 01:20:41;;;;;;;;;0.00;0.00;;;;;16.76;89.97;97261.31;5094404;27;46261;-81
2023/10/20 01:23:06;;;;;;;;;0.00;0.00;;;;;16.74;89.52;97272.25;5079991;27;45269;-80
2023/10/20 01:25:32;;;;;;;;;1.00;0.00;;;;;16.71;88.70;97275.38;5078002;27;45499;-80
2023/10/20 01:27:58;;;;;;;;;0.00;0.00;;;;;16.70;89.39;97268.34;5077681;28;45631;-79
2023/10/20 01:30:25;;;;;;;;;0.00;0.00;;;;;16.64;88.77;97254.88;5094241;27;46101;-83
2023/10/20 01:32:50;;;;;;;;;0.00;0.00;;;;;16.61;88.69;97260.66;5078491;28;45354;-81
2023/10/20 01:35:15;;;;;;;;;0.00;0.00;;;;;16.64;88.58;97246.81;5076809;27;45638;-79
2023/10/20 01:37:42;;;;;;;;;0.00;0.00;;;;;16.64;87.96;97236.09;5077677;28;45581;-81
2023/10/20 01:40:09;;;;;;;;;0.00;0.00;;;;;16.60;87.02;97229.50;5076904;28;45329;-80
2023/10/20 01:42:35;;;;;;;;;0.33;0.00;;;;;16.64;86.53;97223.50;5076952;27;45428;-80
2023/10/20 01:45:00;;;;;;;;;0.00;0.00;;;;;16.59;85.52;97217.13;5076332;27;45369;-82
2023/10/20 01:47:25;;;;;;;;;0.00;0.00;;;;;16.44;84.56;97202.06;5077110;27;45457;-81
2023/10/20 01:49:51;;;;;;;;;0.00;0.00;;;;;16.42;83.80;97184.53;5076425;27;45387;-81
2023/10/20 01:52:16;;;;;;;;;0.00;0.00;;;;;16.55;85.35;97203.31;5076968;27;45196;-83
2023/10/20 01:54:42;;;;;;;;;0.00;0.00;;;;;16.55;84.60;97206.00;5087207;27;45534;-84
2023/10/20 01:57:08;;;;;;;;;0.00;0.00;;;;;16.50;85.00;97193.16;5097615;27;45310;-81
2023/10/20 01:59:34;;;;;;;;;0.00;0.00;;;;;16.55;85.57;97202.47;5091740;27;45204;-82
2023/10/20 02:01:59;;;;;;;;;0.00;0.00;;;;;16.52;84.51;97201.84;5086413;27;58053;-82
2023/10/20 02:04:24;;;;;;;;;0.00;0.00;;;;;16.51;84.69;97194.81;5097200;27;49235;-84
2023/10/20 02:06:50;;;;;;;;;0.00;0.00;;;;;16.49;85.38;97191.53;5095828;27;45258;-82
2023/10/20 02:09:15;;;;;;;;;0.00;0.00;;;;;16.47;85.78;97177.50;5087742;27;56955;-82
2023/10/20 02:11:41;;;;;;;;;0.00;0.00;;;;;16.46;84.77;97175.03;5090531;27;45452;-81
2023/10/20 02:14:06;;;;;;;;;0.00;0.00;;;;;16.38;84.00;97167.16;5096234;27;45362;-80
2023/10/20 02:16:32;;;;;;;;;0.00;0.00;;;;;16.40;84.72;97155.19;5091952;27;45873;-80
2023/10/20 02:18:57;;;;;;;;;0.00;0.00;;;;;16.35;85.33;97138.91;5076684;28;45336;-80
2023/10/20 02:21:23;;;;;;;;;0.00;0.00;;;;;16.30;83.75;97117.28;5079702;27;45485;-81
2023/10/20 02:23:48;;;;;;;;;0.00;0.00;;;;;16.44;83.19;97139.53;5076640;28;45322;-83
2023/10/20 02:26:14;;;;;;;;;0.00;0.00;;;;;16.47;82.80;97149.84;5090521;27;45749;-84
2023/10/20 02:28:40;;;;;;;;;0.00;0.00;;;;;16.43;82.55;97121.81;5096993;27;45523;-82
2023/10/20 02:31:14;;;;;;;;;1.00;0.00;;;;;16.43;83.66;97106.53;5095380;27;62867;-81
2023/10/20 02:33:40;;;;;;;;;0.00;0.00;;;;;16.41;83.76;97092.53;5097171;27;45287;-82
2023/10/20 02:36:06;;;;;;;;;0.00;0.00;;;;;16.40;83.42;97106.09;5083705;27;45380;-79
2023/10/20 02:38:31;;;;;;;;;0.00;0.00;;;;;16.45;83.55;97117.88;5076323;28;45514;-80
2023/10/20 02:40:56;;;;;;;;;0.00;0.00;;;;;16.37;83.14;97110.03;5081468;27;45196;-80
2023/10/20 02:43:22;;;;;;;;;0.00;0.00;;;;;16.50;82.98;97122.59;5080590;27;45374;-80
2023/10/20 02:45:53;;;;;;;;;0.00;0.00;;;;;16.04;83.65;97050.25;5080097;27;45861;-80
2023/10/20 02:48:19;;;;;;;;;0.00;0.00;;;;;16.38;83.17;97109.00;5079856;27;45372;-80
2023/10/20 02:50:45;;;;;;;;;0.00;0.00;;;;;16.47;82.58;97115.00;5079814;27;45366;-81
2023/10/20 02:53:11;;;;;;;;;0.00;0.00;;;;;16.50;82.45;97117.25;5079640;28;45371;-80
2023/10/20 02:55:39;;;;;;;;;2.67;1.33;;;;;16.38;82.64;97097.44;5079357;27;45208;-80
2023/10/20 02:58:04;;;;;;;;;3.00;2.00;;;;;16.47;82.49;97113.13;5079541;28;45265;-80
2023/10/20 03:00:29;;;;;;;;;3.00;1.00;;;;;16.49;82.28;97112.91;5079254;27;68753;-80
2023/10/20 03:02:55;;;;;;;;;1.67;1.67;;;;;16.46;83.00;97119.53;5094420;27;45410;-79
2023/10/20 03:05:21;;;;;;;;;1.00;1.00;;;;;16.40;82.92;97100.75;5078924;27;53291;-80
2023/10/20 03:07:47;;;;;;;;;0.00;0.00;;;;;16.41;83.02;97102.41;5080110;27;45454;-79
2023/10/20 03:10:12;;;;;;;;;3.67;2.00;;;;;16.17;82.79;97066.34;5095315;27;45393;-81
2023/10/20 03:12:38;;;;;;;;;4.33;1.67;;;;;16.29;83.42;97091.50;5100075;27;45263;-79
2023/10/20 03:15:08;;;;;;;;;1.00;1.00;;;;;16.04;83.78;97052.94;5099465;27;45411;-82
2023/10/20 03:17:34;;;;;;;;;2.00;0.00;;;;;15.91;84.05;97038.50;5099715;27;47019;-81
2023/10/20 03:19:59;;;;;;;;;0.00;0.00;;;;;16.21;84.62;97097.06;5099774;27;45200;-82
2023/10/20 03:22:25;;;;;;;;;0.00;0.00;;;;;16.16;84.66;97089.63;5080599;27;45891;-81
2023/10/20 03:24:51;;;;;;;;;2.00;0.00;;;;;15.99;84.37;97071.47;5079608;27;45320;-80
2023/10/20 03:27:17;;;;;;;;;0.00;0.00;;;;;16.08;84.87;97080.97;5080120;27;45283;-81
2023/10/20 03:29:42;;;;;;;;;0.00;0.00;;;;;15.97;85.09;97069.00;5079370;28;45339;-81
2023/10/20 03:32:08;;;;;;;;;0.00;0.00;;;;;15.93;86.43;97068.59;5078982;27;45416;-79
2023/10/20 03:34:33;;;;;;;;;0.33;0.00;;;;;15.74;86.46;97021.16;5078678;27;52276;-81
2023/10/20 03:37:00;;;;;;;;;0.00;0.00;;;;;15.93;87.06;97049.84;5077202;27;46736;-80
2023/10/20 03:39:27;;;;;;;;;0.00;0.00;;;;;15.96;86.56;97050.47;5078877;27;45390;-80
2023/10/20 03:41:53;;;;;;;;;0.00;0.00;;;;;15.93;86.22;97044.47;5078809;27;45297;-80
2023/10/20 03:44:21;;;;;;;;;1.00;0.00;;;;;15.83;86.53;97019.13;5079350;27;45218;-80
2023/10/20 03:46:49;;;;;;;;;0.00;0.00;;;;;16.01;86.64;97046.09;5078221;27;46246;-79
2023/10/20 03:49:16;;;;;;;;;0.00;0.00;;;;;15.82;87.02;97012.13;5078335;27;45401;-79
2023/10/20 03:51:51;;;;;;;;;0.00;0.00;;;;;15.70;86.07;97008.41;5077486;28;45354;-80
2023/10/20 03:54:17;;;;;;;;;0.00;0.00;;;;;15.69;87.36;97045.09;5078972;28;45385;-81
2023/10/20 03:56:43;;;;;;;;;0.00;0.00;;;;;15.79;87.37;97064.25;5093239;27;46082;-80
2023/10/20 03:59:09;;;;;;;;;0.00;0.00;;;;;15.71;87.59;97052.91;5098485;27;45578;-80
2023/10/20 04:01:35;;;;;;;;;0.00;0.00;;;;;15.79;87.73;97069.63;5099066;27;45277;-82
2023/10/20 04:04:00;;;;;;;;;0.00;0.00;;;;;15.72;87.47;97066.09;5099356;27;45547;-80
2023/10/20 04:06:26;;;;;;;;;0.00;0.00;;;;;15.78;87.04;97110.84;5084625;27;47395;-81
2023/10/20 04:08:51;;;;;;;;;0.00;0.00;;;;;15.73;87.61;97115.97;5078804;27;45362;-79
2023/10/20 04:11:17;;;;;;;;;0.00;0.00;;;;;15.70;88.05;97100.31;5078899;27;45508;-80
2023/10/20 04:13:42;;;;;;;;;0.00;0.00;;;;;15.65;88.81;97107.31;5079600;27;45319;-80
2023/10/20 04:16:12;;;;;;;;;0.00;0.00;;;;;15.62;89.49;97108.50;5078660;27;45324;-81
2023/10/20 04:18:38;;;;;;;;;0.00;0.00;;;;;15.59;89.67;97098.19;5079072;27;45905;-80
2023/10/20 04:21:04;;;;;;;;;0.00;0.00;;;;;15.66;89.67;97108.97;5079485;27;45270;-80
2023/10/20 04:23:30;;;;;;;;;0.00;0.00;;;;;15.65;89.45;97113.50;5078341;27;45237;-80
2023/10/20 04:25:55;;;;;;;;;0.00;0.00;;;;;15.70;88.65;97124.41;5090253;27;45479;-80
2023/10/20 04:28:43;;;;;;;;;0.00;0.00;;;;;15.70;88.42;97124.41;5079040;27;45242;-81
2023/10/20 04:53:11;;;;;;;;;0.00;0.00;;;;;15.38;89.13;97162.63;5085128;27;45722;-82
2023/10/20 05:01:14;;;;;;;;;0.00;0.00;;;;;15.16;89.87;97167.25;5077020;27;45454;-80
2023/10/20 05:03:46;;;;;;;;;0.33;0.33;;;;;15.14;89.84;97170.13;5076439;27;45418;-80
2023/10/20 05:06:25;;;;;;;;;0.00;0.00;;;;;15.22;90.10;97179.81;5077075;27;45317;-81
2023/10/20 05:08:51;;;;;;;;;0.00;0.00;;;;;15.18;90.59;97176.72;5081629;27;46190;-80
2023/10/20 05:11:17;;;;;;;;;0.67;0.67;;;;;15.25;90.10;97184.78;5092134;27;45322;-80
2023/10/20 05:13:42;;;;;;;;;0.00;0.00;;;;;15.29;90.08;97189.53;5077598;28;45360;-82
2023/10/20 05:16:10;;;;;;;;;0.00;0.00;;;;;15.26;90.87;97189.13;5080735;27;45542;-83
2023/10/20 05:18:39;;;;;;;;;0.00;0.00;;;;;15.28;90.84;97193.25;5079793;27;46048;-81
2023/10/20 05:21:06;;;;;;;;;0.00;0.00;;;;;15.17;90.71;97160.84;5077426;27;45408;-80
2023/10/20 05:23:33;;;;;;;;;0.00;0.00;;;;;15.27;90.99;97164.81;5076649;28;45382;-81
2023/10/20 05:25:59;;;;;;;;;2.00;0.00;;;;;15.38;90.99;97174.16;5077541;27;45497;-80
2023/10/20 05:28:24;;;;;;;;;0.00;0.00;;;;;15.29;90.56;97152.06;5081167;27;46102;-81
2023/10/20 05:30:49;;;;;;;;;0.00;0.00;;;;;15.41;90.37;97163.03;5080336;27;45213;-81
2023/10/20 05:33:15;;;;;;;;;0.00;0.00;;;;;15.34;90.41;97157.63;5089403;27;54128;-79
2023/10/20 05:35:41;;;;;;;;;1.00;1.00;;;;;15.20;91.05;97137.19;5097830;27;45407;-79
2023/10/20 05:38:07;;;;;;;;;0.00;0.00;;;;;15.43;90.89;97168.19;5087872;27;46117;-80
2023/10/20 05:40:36;;;;;;;;;1.00;1.00;;;;;15.43;91.13;97150.25;5094769;27;45413;-88
2023/10/20 05:43:05;;;;;;;;;1.00;1.00;;;;;15.45;91.46;97144.69;5081537;27;45448;-83
2023/10/20 05:45:35;;;;;;;;;0.00;0.00;;;;;15.47;91.16;97143.47;5091019;27;45264;-80
2023/10/20 05:48:01;;;;;;;;;1.00;1.00;;;;;15.52;91.28;97145.56;5080892;27;45333;-81
2023/10/20 05:50:26;;;;;;;;;1.00;1.00;;;;;15.53;90.88;97148.03;5079254;27;45337;-78
2023/10/20 05:52:52;;;;;;;;;1.00;1.00;;;;;15.47;90.93;97148.00;5092082;27;57165;-83
2023/10/20 05:55:18;;;;;;;;;1.00;1.00;;;;;15.45;90.50;97140.16;5097757;27;45294;-81
2023/10/20 05:57:43;;;;;;;;;1.67;1.67;;;;;15.27;90.57;97113.13;5097399;27;46158;-80
2023/10/20 06:00:09;;;;;;;;;1.00;1.00;;;;;15.57;90.33;97151.13;5103170;27;45385;-81
2023/10/20 06:02:34;;;;;;;;;1.67;1.67;;;;;15.55;90.32;97153.19;5075550;27;45679;-80
2023/10/20 06:05:00;;;;;;;;;1.33;1.33;;;;;15.59;90.31;97159.78;5092266;27;45976;-80
2023/10/20 06:07:27;;;;;;;;;1.00;1.00;;;;;15.51;90.22;97149.28;5084826;27;46658;-80
2023/10/20 06:09:53;;;;;;;;;2.00;2.00;;;;;15.62;89.50;97159.41;5091704;27;45445;-82
2023/10/20 06:12:19;;;;;;;;;2.00;1.00;;;;;15.54;89.42;97149.69;5089441;27;45444;-83
2023/10/20 06:14:44;;;;;;;;;1.00;1.00;;;;;15.58;89.30;97160.81;5090916;27;45378;-81
2023/10/20 06:17:10;;;;;;;;;2.00;2.00;;;;;15.57;89.45;97148.44;5090163;27;47271;-79
2023/10/20 06:19:35;;;;;;;;;2.00;1.00;;;;;15.43;89.15;97126.16;5094337;27;45392;-79
2023/10/20 06:22:01;;;;;;;;;0.67;0.67;;;;;15.58;88.91;97150.09;5096903;27;45453;-81
2023/10/20 06:24:27;;;;;;;;;2.00;2.00;;;;;15.60;88.74;97172.19;5097474;27;45403;-80
2023/10/20 06:26:53;;;;;;;;;0.00;0.00;;;;;15.49;88.71;97157.47;5097005;27;45922;-79
2023/10/20 06:29:27;;;;;;;;;2.33;2.33;;;;;15.57;88.44;97165.34;5079085;27;45374;-82
2023/10/20 06:34:41;;;;;;;;;1.00;1.00;;;;;15.51;88.68;97173.38;5075996;27;45663;-82
2023/10/20 06:37:14;;;;;;;;;3.00;1.67;;;;;15.53;88.65;97158.75;5089875;27;46518;-80
2023/10/20 06:39:40;;;;;;;;;0.00;0.00;;;;;15.41;88.34;97132.75;5079660;27;45323;-81
2023/10/20 06:42:06;;;;;;;;;1.00;1.00;;;;;15.43;88.94;97144.91;5081975;27;45429;-84
2023/10/20 06:44:34;;;;;;;;;0.00;0.00;;;;;15.49;88.88;97160.16;5095674;27;45505;-85
2023/10/20 06:46:59;;;;;;;;;2.00;1.00;;;;;15.47;88.89;97156.03;5083516;27;45444;-88
2023/10/20 06:49:25;;;;;;;;;2.00;1.00;;;;;15.47;89.31;97138.13;5076141;28;45433;-85
2023/10/20 06:51:50;;;;;;;;;1.00;0.00;;;;;15.53;89.16;97147.22;5079486;27;45822;-86
2023/10/20 06:54:17;;;;;;;;;0.00;0.00;;;;;15.52;88.83;97150.91;5075904;27;45516;-88
2023/10/20 06:56:42;;;;;;;;;1.00;1.00;;;;;15.55;89.56;97156.69;5075733;27;45373;-83
2023/10/20 06:59:12;;;;;;;;;2.00;1.00;;;;;15.48;89.21;97155.84;5075753;27;45671;-81
2023/10/20 07:01:37;;;;;;;;;4.00;1.00;;;;;15.61;89.14;97171.97;5095873;27;45489;-79
2023/10/20 07:04:06;;;;;;;;;4.33;2.00;;;;;15.60;88.80;97161.47;5093216;27;45428;-80
2023/10/20 07:06:31;;;;;;;;;1.00;1.00;;;;;15.69;88.83;97179.03;5072949;28;46259;-81
2023/10/20 07:08:57;;;;;;;;;2.00;2.00;;;;;15.44;88.45;97149.22;5074519;28;45526;-80
2023/10/20 07:11:24;;;;;;;;;2.00;2.00;;;;;15.65;88.10;97188.50;5075112;28;45352;-80
2023/10/20 07:13:49;;;;;;;;;5.00;3.00;;;;;15.59;87.93;97175.84;5089047;27;45501;-81
2023/10/20 07:16:15;;;;;;;;;1.00;1.00;;;;;15.45;87.65;97144.69;5092544;27;45605;-83
2023/10/20 07:18:40;;;;;;;;;3.00;1.33;;;;;15.68;87.80;97190.75;5094910;27;45601;-82
2023/10/20 07:21:05;;;;;;;;;1.67;1.67;;;;;15.67;87.59;97181.09;5086754;27;52079;-81
2023/10/20 07:23:34;;;;;;;;;1.00;1.00;;;;;15.66;87.88;97184.78;5076956;28;45393;-82
2023/10/20 07:25:59;;;;;;;;;1.00;1.00;;;;;15.62;87.56;97173.66;5085348;27;45717;-80
2023/10/20 07:28:25;;;;;;;;;2.67;2.67;;;;;15.74;87.19;97181.91;5099497;27;45401;-87
2023/10/20 07:30:51;;;;;;;;;3.00;3.00;;;;;15.68;87.41;97177.38;5099678;27;45518;-84
2023/10/20 07:33:16;;;;;;;;;4.33;3.00;;;;;15.74;87.53;97170.38;5100663;27;45423;-82
2023/10/20 07:35:42;;;;;;;;;3.33;3.33;;;;;15.75;87.16;97172.03;5121368;27;48129;-85
2023/10/20 07:38:07;;;;;;;;;5.00;3.67;;;;;15.81;87.31;97185.44;5094142;27;45730;-81
2023/10/20 07:40:34;;;;;;;;;2.00;2.00;;;;;15.87;86.72;97189.97;5083146;27;45335;-83
2023/10/20 07:43:01;;;;;;;;;2.67;2.67;;;;;15.69;86.58;97140.69;5098748;27;45510;-85
2023/10/20 07:45:28;;;;;;;;;3.00;1.67;;;;;15.96;85.94;97187.97;5103505;27;47096;-81
2023/10/20 07:47:54;;;;;;;;;2.00;2.00;;;;;15.95;85.24;97206.91;5096594;27;45405;-80
2023/10/20 07:50:20;;;;;;;;;2.67;2.67;;;;;15.87;85.39;97214.09;5094798;27;45432;-82
2023/10/20 07:52:45;;;;;;;;;2.00;2.00;;;;;15.97;85.08;97220.94;5102321;27;45509;-82
2023/10/20 07:55:10;;;;;;;;;2.00;2.00;;;;;15.83;84.85;97206.69;5099340;27;45538;-81
2023/10/20 07:57:36;;;;;;;;;3.00;3.00;;;;;15.92;84.76;97213.50;5086081;27;48375;-80
2023/10/20 08:00:03;;;;;;;;;1.33;1.33;;;;;16.05;83.93;97205.50;5096684;27;46487;-85
2023/10/20 08:02:29;;;;;;;;;3.00;3.00;;;;;16.09;83.67;97213.97;5094125;27;45750;-80
2023/10/20 08:04:54;;;;;;;;;2.67;2.67;;;;;15.99;83.40;97192.06;5090695;27;46418;-79
2023/10/20 08:07:19;;;;;;;;;3.00;3.00;;;;;16.26;82.51;97201.81;5095467;27;58463;-82
2023/10/20 08:09:45;;;;;;;;;3.00;1.00;;;;;16.22;82.36;97188.00;5090871;27;45480;-81
2023/10/20 08:12:10;;;;;;;;;2.00;2.00;;;;;16.41;82.41;97228.47;5082619;27;45337;-81
2023/10/20 08:14:35;;;;;;;;;3.33;3.00;;;;;16.30;82.41;97211.13;5094293;27;46370;-80
2023/10/20 08:17:03;;;;;;;;;3.00;3.00;;;;;16.30;81.89;97218.34;5098004;27;45353;-80
2023/10/20 08:19:30;;;;;;;;;2.00;2.00;;;;;16.37;81.49;97233.38;5098858;27;45500;-83
2023/10/20 08:21:55;;;;;;;;;3.33;3.00;;;;;16.32;80.13;97227.00;5098120;27;45630;-81
2023/10/20 08:24:21;;;;;;;;;2.00;2.00;;;;;16.27;80.05;97230.28;5099280;27;46557;-82
2023/10/20 08:26:46;;;;;;;;;1.00;1.00;;;;;16.16;79.97;97233.59;5098624;27;45426;-81
2023/10/20 08:29:12;;;;;;;;;1.67;1.67;;;;;16.29;79.98;97263.09;5099820;27;51043;-84
2023/10/20 08:31:39;;;;;;;;;3.00;3.00;;;;;16.21;80.21;97244.50;5099263;27;45495;-85
2023/10/20 08:34:05;;;;;;;;;1.00;1.00;;;;;16.29;79.64;97244.34;5097962;27;45420;-84
2023/10/20 08:36:31;;;;;;;;;5.67;2.00;;;;;16.33;79.81;97250.94;5091769;27;45401;-86
2023/10/20 08:39:01;;;;;;;;;2.67;2.67;;;;;16.44;79.60;97246.81;5096495;27;45405;-82
2023/10/20 08:41:27;;;;;;;;;2.00;2.00;;;;;16.56;79.08;97249.72;5088739;27;45453;-81
2023/10/20 08:43:55;;;;;;;;;3.33;2.00;;;;;16.66;78.37;97256.31;5102801;27;45276;-83
2023/10/20 08:46:23;;;;;;;;;2.67;2.00;;;;;16.59;78.28;97230.53;5084859;27;45399;-82
2023/10/20 08:48:48;;;;;;;;;3.00;3.00;;;;;16.75;78.05;97254.31;5084064;27;45397;-84
2023/10/20 08:51:15;;;;;;;;;5.00;2.00;;;;;16.76;78.16;97250.59;5083287;27;45082;-83
2023/10/20 08:53:42;;;;;;;;;2.00;2.00;;;;;16.71;78.21;97239.66;5090932;27;46165;-82
2023/10/20 08:56:10;;;;;;;;;2.33;1.33;;;;;16.76;77.76;97234.47;5083796;27;45396;-84
2023/10/20 08:58:36;;;;;;;;;4.00;2.00;;;;;16.97;77.34;97261.13;5108994;27;45394;-82
2023/10/20 09:01:05;;;;;;;;;5.00;3.00;;;;;16.95;76.21;97230.97;5098050;27;45744;-81
2023/10/20 09:03:59;;;;;;;;;1.33;1.33;;;;;17.28;75.86;97247.03;5098499;27;45411;-81
2023/10/20 09:06:26;;;;;;;;;2.67;2.00;;;;;17.36;74.99;97240.63;5076724;27;45528;-82
2023/10/20 09:08:52;;;;;;;;;2.33;2.33;;;;;17.47;74.19;97253.41;5086805;27;45472;-83
2023/10/20 09:11:18;;;;;;;;;1.00;1.00;;;;;17.51;73.81;97264.53;5078759;27;45561;-81
2023/10/20 09:13:44;;;;;;;;;3.00;2.00;;;;;17.39;73.42;97240.19;5088614;27;46087;-81
2023/10/20 09:16:13;;;;;;;;;4.67;3.00;;;;;17.44;73.63;97263.72;5091785;27;45378;-81
2023/10/20 09:18:53;;;;;;;;;3.00;3.00;;;;;17.34;74.17;97266.84;5078739;27;45462;-82
2023/10/20 09:21:26;;;;;;;;;3.33;3.00;;;;;17.22;74.44;97271.22;5083278;27;45417;-81
2023/10/20 09:23:57;;;;;;;;;2.00;2.00;;;;;17.12;74.65;97273.50;5094934;27;46637;-81
2023/10/20 09:26:24;;;;;;;;;5.00;5.00;;;;;17.04;75.05;97285.25;5075499;27;45484;-82
2023/10/20 09:28:53;;;;;;;;;7.67;4.00;;;;;17.06;74.92;97278.66;5109148;27;46826;-82
2023/10/20 09:31:19;;;;;;;;;6.67;4.00;;;;;16.91;74.36;97245.81;5086045;27;45569;-81
2023/10/20 09:33:45;;;;;;;;;10.00;6.00;;;;;17.23;74.24;97267.50;5076889;27;45710;-81
2023/10/20 09:36:11;;;;;;;;;3.00;3.00;;;;;17.26;73.58;97245.59;5088124;27;45440;-81
2023/10/20 09:38:37;;;;;;;;;6.67;4.00;;;;;17.59;73.36;97277.75;5081947;27;45848;-82
2023/10/20 09:41:11;;;;;;;;;5.33;5.00;;;;;17.64;72.50;97264.50;5087351;27;44902;-84
2023/10/20 09:43:42;;;;;;;;;5.00;5.00;;;;;17.66;72.19;97265.09;5079854;28;46706;-82
2023/10/20 09:46:46;;;;;;;;;2.33;2.33;;;;;17.68;72.49;97279.16;5079185;27;45457;-80
2023/10/20 09:49:20;;;;;;;;;5.00;4.67;;;;;17.73;72.32;97278.56;5054928;27;45446;-83
2023/10/20 09:51:47;;;;;;;;;7.00;4.00;;;;;17.58;72.10;97268.88;5077751;28;45562;-80
2023/10/20 09:54:14;;;;;;;;;3.00;1.33;;;;;17.67;71.74;97289.09;5080731;27;46042;-87
2023/10/20 09:56:42;;;;;;;;;4.00;4.00;;;;;17.59;71.63;97277.75;5082851;27;45275;-80
2023/10/20 09:59:09;;;;;;;;;3.67;3.67;;;;;17.56;71.51;97295.09;5077296;27;45487;-83
2023/10/20 10:01:34;;;;;;;;;6.00;6.00;;;;;17.59;71.90;97292.00;5077571;28;45451;-85
2023/10/20 10:04:03;;;;;;;;;6.00;5.00;;;;;17.76;71.22;97283.53;5076097;27;47080;-85
2023/10/20 10:06:35;;;;;;;;;5.00;4.00;;;;;17.73;70.71;97281.25;5097761;27;45499;-86
2023/10/20 10:09:05;;;;;;;;;6.00;4.33;;;;;17.84;71.26;97296.69;5093990;27;45475;-82
2023/10/20 10:11:39;;;;;;;;;2.00;2.00;;;;;17.95;70.45;97309.50;5076555;28;45406;-82
2023/10/20 10:14:05;;;;;;;;;4.33;4.00;;;;;17.92;70.13;97293.78;5088102;27;45472;-85
2023/10/20 10:16:31;;;;;;;;;5.33;4.33;;;;;18.02;70.25;97304.09;5098249;27;45416;-82
2023/10/20 10:19:07;;;;;;;;;5.67;4.67;;;;;18.02;70.15;97310.31;5097879;27;45356;-83
2023/10/20 10:21:38;;;;;;;;;4.00;4.00;;;;;17.95;69.74;97301.41;5097039;27;45634;-84
2023/10/20 10:24:23;;;;;;;;;5.67;5.67;;;;;17.83;70.47;97306.63;5096413;27;46001;-87
2023/10/20 10:27:01;;;;;;;;;5.00;5.00;;;;;17.80;71.04;97315.13;5099431;27;45505;-86
2023/10/20 10:29:48;;;;;;;;;3.33;3.33;;;;;17.74;71.50;97317.84;5080058;27;45316;-90
2023/10/20 10:32:14;;;;;;;;;5.00;4.33;;;;;17.66;72.43;97322.38;5078036;28;45445;-88
2023/10/20 10:34:43;;;;;;;;;5.00;4.67;;;;;17.60;72.85;97317.84;5078519;27;46103;-86
2023/10/20 10:37:09;;;;;;;;;5.00;3.00;;;;;17.57;73.55;97323.63;5077201;27;45428;-86
2023/10/20 10:39:34;;;;;;;;;6.67;4.00;;;;;17.55;73.96;97314.94;5077018;27;45373;-86
2023/10/20 10:42:05;;;;;;;;;4.00;4.00;;;;;17.54;74.47;97310.59;5079788;27;45327;-87
2023/10/20 10:44:37;;;;;;;;;7.33;4.33;;;;;17.69;74.55;97326.53;5083838;28;45408;-83
2023/10/20 10:47:04;;;;;;;;;4.00;4.00;;;;;17.66;74.99;97322.38;5082795;27;45276;-84
2023/10/20 10:49:31;;;;;;;;;4.67;4.67;;;;;17.48;75.30;97308.78;5100742;27;45441;-84
2023/10/20 10:51:57;;;;;;;;;6.00;4.00;;;;;17.31;75.93;97305.69;5106963;27;45436;-83
2023/10/20 10:54:24;;;;;;;;;8.00;4.00;;;;;17.31;76.50;97324.47;5108355;27;45398;-82
2023/10/20 10:56:49;;;;;;;;;6.67;6.67;;;;;17.38;77.17;97332.53;5105952;27;44778;-79
2023/10/20 10:59:15;;;;;;;;;5.33;4.00;;;;;17.39;77.46;97331.50;5107723;27;44737;-84
2023/10/20 11:01:42;;;;;;;;;6.00;6.00;;;;;17.36;77.76;97321.19;5107264;27;45343;-80
2023/10/20 11:04:10;;;;;;;;;6.00;4.33;;;;;17.39;77.74;97310.84;5094629;27;46271;-81
2023/10/20 11:06:40;;;;;;;;;7.00;6.00;;;;;17.74;77.10;97329.41;5081772;27;45440;-85
2023/10/20 11:09:08;;;;;;;;;7.67;7.00;;;;;17.78;76.28;97302.94;5080737;27;45366;-84
2023/10/20 11:11:47;;;;;;;;;8.67;7.00;;;;;18.09;74.92;97315.63;5080603;27;45469;-82
2023/10/20 11:14:17;;;;;;;;;7.00;7.00;;;;;18.17;73.69;97308.16;5077895;27;45639;-82
2023/10/20 11:16:42;;;;;;;;;6.00;6.00;;;;;18.08;73.50;97287.09;5078640;27;45381;-83
2023/10/20 11:19:11;;;;;;;;;8.00;5.00;;;;;18.22;73.15;97291.38;5080766;27;45397;-80
2023/10/20 11:21:51;;;;;;;;;6.00;6.00;;;;;18.49;72.88;97321.66;5101829;27;45503;-85
2023/10/20 11:24:29;;;;;;;;;6.00;6.00;;;;;18.53;72.02;97312.13;5097307;27;46161;-83
2023/10/20 11:27:05;;;;;;;;;4.00;4.00;;;;;18.62;70.98;97316.22;5085675;27;45370;-87
2023/10/20 11:29:32;;;;;;;;;6.00;6.00;;;;;18.72;70.61;97316.56;5082500;27;45534;-86
2023/10/20 11:32:06;;;;;;;;;6.67;6.67;;;;;18.66;70.36;97306.69;5082591;27;45324;-82
2023/10/20 11:34:35;;;;;;;;;7.00;7.00;;;;;18.55;70.63;97310.84;5080112;27;45843;-82
2023/10/20 11:37:01;;;;;;;;;7.00;7.00;;;;;18.55;70.76;97285.81;5090372;27;45552;-84
2023/10/20 11:39:27;;;;;;;;;6.00;5.00;;;;;18.92;69.93;97294.91;5097799;27;45834;-83
2023/10/20 11:41:56;;;;;;;;;8.00;6.00;;;;;19.70;67.69;97300.63;5092090;27;45596;-85
2023/10/20 11:44:24;;;;;;;;;4.00;4.00;;;;;20.63;64.42;97301.38;5084914;27;45818;-84
2023/10/20 11:46:52;;;;;;;;;7.33;5.00;;;;;21.26;62.32;97277.31;5093042;27;45421;-81
2023/10/20 11:49:18;;;;;;;;;7.33;5.00;;;;;21.62;60.04;97256.50;5088452;27;45342;-84
2023/10/20 11:51:44;;;;;;;;;10.33;5.33;;;;;21.35;60.69;97294.00;5083208;27;45674;-85
2023/10/20 11:54:09;;;;;;;;;4.00;4.00;;;;;20.66;61.60;97295.50;5076552;27;45570;-82
2023/10/20 11:56:35;;;;;;;;;9.00;4.67;;;;;20.20;63.31;97307.72;5089709;27;45620;-82
2023/10/20 11:59:01;;;;;;;;;3.67;3.67;;;;;20.22;64.07;97305.63;5085624;27;45411;-81
2023/10/20 12:01:27;;;;;;;;;11.00;7.33;;;;;20.20;64.75;97299.63;5093886;27;45427;-81
2023/10/20 12:03:52;;;;;;;;;3.00;3.00;;;;;20.33;63.79;97291.38;5085499;27;46271;-82